Blue Mountain, Colorado
Current Conditions -  °F | °C
As of 1:53 PM on Monday 22 Dec 2014 (Local Time) from KVEL Reporting Station
Scattered Clouds Scattered Clouds  
Wind Chill: 29°   Ceiling: Unl
Heat Index: 39°   Visibility: 10mi
Dew Point: 26°   Wind: 21mph
Humidity: 60%   Direction: 10°N
Pressure: 29.81"   Gusts: 26mph
Location:  40.362°N, 108.818°W
Report Text: KVEL 222053Z AUTO 01018G23KT 10SM SCT085 04/M03 A2981 RMK AO2 PK WND 36029/2028 SLP095 T00391033 56016
Loading
Personal Weather Stations






























Interactive Weather Map New forecast layout! Learn more

10-Day Weather Forecast

Advertisements
Track Severe Weather on mobile